createdAt,value
2022-11-16T00:02:15.972Z,98946.44
2022-11-16T00:04:51.030Z,98949.47
2022-11-16T00:07:17.698Z,98944.59
2022-11-16T00:09:44.443Z,98942.47
2022-11-16T00:12:19.931Z,98939.03
2022-11-16T00:14:46.490Z,98937.59
2022-11-16T00:17:15.596Z,98932.16
2022-11-16T00:19:57.042Z,98936.28
2022-11-16T00:22:24.064Z,98925.88
2022-11-16T00:24:50.706Z,98923.03
2022-11-16T00:27:23.157Z,98920.03
2022-11-16T00:29:49.976Z,98924.31
2022-11-16T00:32:19.779Z,98921.59
2022-11-16T00:34:51.712Z,98918.81
2022-11-16T00:37:18.366Z,98925.88
2022-11-16T00:39:45.052Z,98922.72
2022-11-16T00:42:12.547Z,98921.09
2022-11-16T00:44:45.180Z,98921.25
2022-11-16T00:47:11.818Z,98915.25
2022-11-16T00:49:46.209Z,98921.25
2022-11-16T00:52:13.227Z,98913.13
2022-11-16T00:54:39.860Z,98911.25
2022-11-16T00:57:08.900Z,98911.09
2022-11-16T00:59:36.127Z,98907.72
2022-11-16T01:02:02.710Z,98893.66
2022-11-16T01:04:29.420Z,98901.66
2022-11-16T01:06:58.523Z,98888.41
2022-11-16T01:09:25.420Z,98896.56
2022-11-16T01:12:10.364Z,98895.59
2022-11-16T01:14:42.150Z,98888.84
2022-11-16T01:17:08.986Z,98886.25
2022-11-16T01:19:36.626Z,98884.41
2022-11-16T01:22:03.528Z,98878.59
2022-11-16T01:24:30.162Z,98872.34
2022-11-16T01:26:58.330Z,98865.38
2022-11-16T01:29:33.644Z,98863.44
2022-11-16T01:32:01.487Z,98864.88
2022-11-16T01:34:28.611Z,98866.16
2022-11-16T01:37:04.705Z,98860.59
2022-11-16T01:39:34.671Z,98857.66
2022-11-16T01:42:03.148Z,98855.34
2022-11-16T01:44:44.981Z,98855.31
2022-11-16T01:47:18.194Z,98856.88
2022-11-16T01:49:52.681Z,98855.50
2022-11-16T01:52:28.115Z,98853.78
2022-11-16T01:54:55.501Z,98853.13
2022-11-16T01:57:32.029Z,98849.47
2022-11-16T02:00:07.713Z,98854.66
2022-11-16T02:03:03.438Z,98852.78
2022-11-16T02:05:58.419Z,98841.28
2022-11-16T02:09:06.061Z,98844.19
2022-11-16T02:12:13.610Z,98846.34
2022-11-16T02:14:54.848Z,98859.25
2022-11-16T02:17:22.716Z,98857.06
2022-11-16T02:20:08.400Z,98857.09
2022-11-16T02:23:20.011Z,98862.34
2022-11-16T02:26:23.565Z,98872.72
2022-11-16T02:29:11.446Z,98875.59
2022-11-16T02:31:41.393Z,98877.72
2022-11-16T02:34:10.481Z,98877.97
2022-11-16T02:36:38.508Z,98884.25
2022-11-16T02:39:12.131Z,98886.34
2022-11-16T02:41:41.732Z,98886.09
2022-11-16T02:44:12.407Z,98887.97
2022-11-16T02:46:41.897Z,98894.00
2022-11-16T02:49:14.197Z,98887.03
2022-11-16T02:51:41.601Z,98889.13
2022-11-16T02:54:11.482Z,98885.50
2022-11-16T02:56:41.886Z,98888.66
2022-11-16T02:59:13.030Z,98890.75
2022-11-16T03:01:46.658Z,98884.34
2022-11-16T03:04:26.935Z,98885.84
2022-11-16T03:06:55.347Z,98872.59
2022-11-16T03:09:27.572Z,98861.31
2022-11-16T03:11:59.568Z,98860.53
2022-11-16T03:14:35.841Z,98855.75
2022-11-16T03:17:04.498Z,98857.84
2022-11-16T03:19:42.598Z,98849.34
2022-11-16T03:22:13.435Z,98848.78
2022-11-16T03:24:41.139Z,98865.50
2022-11-16T03:27:35.422Z,98864.72
2022-11-16T03:30:01.953Z,98865.41
2022-11-16T03:32:33.786Z,98878.63
2022-11-16T03:35:22.044Z,98877.97
2022-11-16T03:37:52.701Z,98882.16
2022-11-16T03:40:22.237Z,98887.59
2022-11-16T03:42:50.220Z,98892.13
2022-11-16T03:45:17.803Z,98898.06
2022-11-16T03:47:45.405Z,98900.03
2022-11-16T03:50:13.852Z,98905.97
2022-11-16T03:52:41.369Z,98909.22
2022-11-16T03:55:08.513Z,98905.16
2022-11-16T03:57:35.707Z,98921.53
2022-11-16T04:00:02.875Z,98920.25
2022-11-16T04:02:39.896Z,98920.25
2022-11-16T04:05:26.471Z,98923.16
2022-11-16T04:08:11.909Z,98919.53
2022-11-16T04:10:57.189Z,98929.66
2022-11-16T04:13:45.851Z,98931.41
2022-11-16T04:16:30.966Z,98950.09
2022-11-16T04:19:17.245Z,98952.31
2022-11-16T04:22:08.381Z,98959.16
2022-11-16T04:24:39.000Z,98965.31
2022-11-16T04:27:27.545Z,98979.06
2022-11-16T04:29:58.279Z,98982.84
2022-11-16T04:32:44.050Z,98994.00
2022-11-16T04:35:42.949Z,99009.84
2022-11-16T04:38:10.513Z,99025.22
2022-11-16T04:40:37.515Z,99035.13
2022-11-16T04:43:05.433Z,99050.31
2022-11-16T04:45:54.357Z,99056.50
2022-11-16T04:48:24.992Z,99067.25
2022-11-16T04:50:53.781Z,99069.72
2022-11-16T04:53:22.558Z,99086.19
2022-11-16T04:56:00.739Z,99081.66
2022-11-16T04:58:28.959Z,99102.97
2022-11-16T05:00:55.747Z,99111.06
2022-11-16T05:03:22.746Z,99124.06
2022-11-16T05:05:50.450Z,99140.31
2022-11-16T05:08:17.208Z,99149.16
2022-11-16T05:10:45.636Z,99153.91
2022-11-16T05:13:12.225Z,99167.63
2022-11-16T05:15:41.133Z,99169.94
2022-11-16T05:18:07.866Z,99175.09
2022-11-16T05:20:53.040Z,99182.88
2022-11-16T05:23:38.303Z,99186.13
2022-11-16T05:26:10.304Z,99202.69
2022-11-16T05:28:38.099Z,99210.03
2022-11-16T05:31:04.851Z,99230.38
2022-11-16T05:33:31.986Z,99236.59
2022-11-16T05:35:58.676Z,99255.28
2022-11-16T05:38:25.831Z,99277.84
2022-11-16T05:41:01.511Z,99302.78
2022-11-16T05:43:29.567Z,99321.03
2022-11-16T05:46:07.227Z,99335.38
2022-11-16T05:48:35.141Z,99414.72
2022-11-16T05:51:03.261Z,99469.41
2022-11-16T05:53:33.322Z,99501.66
2022-11-16T05:56:07.038Z,99510.09
2022-11-16T05:58:40.021Z,99547.25
2022-11-16T06:01:06.820Z,99554.66
2022-11-16T06:03:35.601Z,99573.59
2022-11-16T06:06:03.991Z,99569.06
2022-11-16T06:08:31.489Z,99576.47
2022-11-16T06:11:06.707Z,99579.13
2022-11-16T06:13:35.949Z,99577.50
2022-11-16T06:16:03.879Z,99586.97
2022-11-16T06:18:38.425Z,99578.94
2022-11-16T06:21:05.863Z,99575.25
2022-11-16T06:23:32.586Z,99575.25
2022-11-16T06:26:11.771Z,99568.88
2022-11-16T06:28:39.298Z,99576.47
2022-11-16T06:31:06.392Z,99581.81
2022-11-16T06:33:37.501Z,99587.16
2022-11-16T06:36:08.883Z,99576.06
2022-11-16T06:38:36.731Z,99587.56
2022-11-16T06:41:07.113Z,99581.19
2022-11-16T06:44:19.025Z,99590.22
2022-11-16T06:46:54.962Z,99599.69
2022-11-16T06:49:28.394Z,99600.50
2022-11-16T06:52:06.819Z,99612.63
2022-11-16T06:58:22.523Z,99616.34
2022-11-16T07:00:55.676Z,99629.47
2022-11-16T07:03:26.323Z,99630.06
2022-11-16T07:05:55.291Z,99634.16
2022-11-16T07:08:29.549Z,99634.63
2022-11-16T07:11:00.164Z,99639.94
2022-11-16T07:13:32.118Z,99640.75
2022-11-16T07:16:29.368Z,99636.22
2022-11-16T07:19:00.827Z,99631.91
2022-11-16T07:21:30.371Z,99642.59
2022-11-16T07:23:59.438Z,99647.75
2022-11-16T07:26:26.376Z,99648.78
2022-11-16T07:29:01.764Z,99655.34
2022-11-16T07:31:29.528Z,99659.47
2022-11-16T07:34:14.737Z,99659.84
2022-11-16T07:36:54.295Z,99671.56
2022-11-16T07:39:23.215Z,99684.31
2022-11-16T07:41:56.407Z,99675.88
2022-11-16T07:44:49.519Z,99681.47
2022-11-16T07:47:25.523Z,99687.41
2022-11-16T07:50:51.254Z,99689.06
2022-11-16T07:53:34.375Z,99690.91
2022-11-16T07:59:06.320Z,99705.72
2022-11-16T08:01:49.211Z,99705.72
2022-11-16T08:04:17.664Z,99715.56
2022-11-16T08:06:45.543Z,99720.91
2022-11-16T08:09:34.206Z,99740.22
2022-11-16T08:12:04.378Z,99729.72
2022-11-16T08:14:52.570Z,99747.22
2022-11-16T08:17:29.970Z,99751.91
2022-11-16T08:19:57.292Z,99751.72
2022-11-16T08:22:29.673Z,99757.88
2022-11-16T08:25:04.303Z,99765.91
2022-11-16T08:28:03.675Z,99775.38
2022-11-16T08:30:52.498Z,99776.78
2022-11-16T08:33:24.719Z,99776.59
2022-11-16T08:36:14.631Z,99778.47
2022-11-16T08:38:58.127Z,99784.00
2022-11-16T08:41:35.192Z,99780.31
2022-11-16T08:44:07.738Z,99791.16
2022-11-16T08:46:37.923Z,99785.00
2022-11-16T08:49:36.898Z,99789.91
2022-11-16T08:52:19.583Z,99789.31
2022-11-16T08:54:49.382Z,99788.94
2022-11-16T08:57:26.782Z,99792.59
2022-11-16T08:59:57.888Z,99799.22
2022-11-16T09:02:49.300Z,99802.88
2022-11-16T09:05:21.385Z,99802.31
2022-11-16T09:08:15.219Z,99797.56
2022-11-16T09:10:47.337Z,99795.31
2022-11-16T09:13:17.120Z,99803.16
2022-11-16T09:16:12.724Z,99807.19
2022-11-16T09:18:39.951Z,99801.50
2022-11-16T09:24:46.003Z,99807.44
2022-11-16T09:27:24.435Z,99811.13
2022-11-16T09:30:19.543Z,99805.59
2022-11-16T09:32:49.390Z,99819.16
2022-11-16T09:35:21.450Z,99814.00
2022-11-16T09:37:51.997Z,99819.16
2022-11-16T09:41:05.697Z,99816.91
2022-11-16T09:44:17.277Z,99824.09
2022-11-16T09:47:19.282Z,99821.66
2022-11-16T09:50:06.741Z,99817.31
2022-11-16T09:52:55.587Z,99825.97
2022-11-16T09:56:10.870Z,99830.66
2022-11-16T09:59:05.619Z,99820.38
2022-11-16T10:02:21.345Z,99829.44
2022-11-16T10:05:25.111Z,99829.03
2022-11-16T10:08:16.610Z,99833.94
2022-11-16T10:11:01.657Z,99830.63
2022-11-16T10:13:49.802Z,99834.13
2022-11-16T10:16:47.661Z,99832.69
2022-11-16T10:19:53.952Z,99840.91
2022-11-16T10:22:39.856Z,99839.69
2022-11-16T10:25:46.169Z,99843.75
2022-11-16T10:28:15.793Z,99843.34
2022-11-16T10:31:09.595Z,99842.13
2022-11-16T10:33:37.595Z,99830.56
2022-11-16T10:36:15.781Z,99837.78
2022-11-16T10:38:43.828Z,99834.50
2022-11-16T10:41:28.188Z,99834.72
2022-11-16T10:44:23.250Z,99837.59
2022-11-16T10:47:25.375Z,99830.19
2022-11-16T10:50:04.440Z,99833.28
2022-11-16T10:52:36.680Z,99827.31
2022-11-16T10:55:44.817Z,99828.50
2022-11-16T10:58:28.402Z,99826.47
2022-11-16T11:01:10.782Z,99826.78
2022-11-16T11:03:41.672Z,99830.44
2022-11-16T11:06:34.620Z,99830.41
2022-11-16T11:09:26.712Z,99838.63
2022-11-16T11:12:32.751Z,99830.16
2022-11-16T11:15:09.583Z,99836.47
2022-11-16T11:17:37.530Z,99836.66
2022-11-16T11:24:43.867Z,99831.53
2022-11-16T11:27:31.146Z,99831.38
2022-11-16T11:30:00.480Z,99827.88
2022-11-16T11:32:35.278Z,99828.25
2022-11-16T11:35:02.970Z,99813.50
2022-11-16T11:37:44.942Z,99808.81
2022-11-16T11:40:27.714Z,99807.59
2022-11-16T11:43:21.974Z,99804.50
2022-11-16T11:45:56.907Z,99803.91
2022-11-16T11:48:59.588Z,99799.41
2022-11-16T11:51:33.483Z,99800.88
2022-11-16T11:54:11.144Z,99792.66
2022-11-16T11:56:37.753Z,99783.56
2022-11-16T11:59:05.003Z,99792.41
2022-11-16T12:01:56.751Z,99797.16
2022-11-16T12:04:45.519Z,99793.84
2022-11-16T12:07:33.465Z,99797.16
2022-11-16T12:10:12.264Z,99800.84
2022-11-16T12:12:51.014Z,99794.91
2022-11-16T12:15:45.178Z,99793.44
2022-11-16T12:18:33.951Z,99795.50
2022-11-16T12:21:14.176Z,99796.06
2022-11-16T12:24:22.602Z,99790.81
2022-11-16T12:27:07.964Z,99787.44
2022-11-16T12:29:53.175Z,99797.06
2022-11-16T12:32:47.968Z,99797.94
2022-11-16T12:35:52.280Z,99797.50
2022-11-16T12:38:40.214Z,99793.16
2022-11-16T12:41:58.073Z,99794.94
2022-11-16T12:44:48.776Z,99784.13
2022-11-16T12:47:54.001Z,99780.91
2022-11-16T12:51:13.128Z,99782.59
2022-11-16T12:54:13.947Z,99771.84
2022-11-16T12:56:48.711Z,99762.78
2022-11-16T12:59:52.676Z,99759.13
2022-11-16T13:02:53.993Z,99753.94
2022-11-16T13:05:24.493Z,99757.59
2022-11-16T13:07:59.214Z,99756.13
2022-11-16T13:10:31.698Z,99746.53
2022-11-16T13:15:49.167Z,99747.28
2022-11-16T13:18:17.246Z,99739.16
2022-11-16T13:20:56.131Z,99742.28
2022-11-16T13:23:32.162Z,99737.06
2022-11-16T13:26:10.370Z,99745.38
2022-11-16T13:28:54.433Z,99738.06
2022-11-16T13:31:52.548Z,99737.03
2022-11-16T13:34:32.356Z,99733.53
2022-11-16T13:36:59.081Z,99730.84
2022-11-16T13:39:50.633Z,99723.31
2022-11-16T13:47:07.003Z,99705.34
2022-11-16T13:50:17.917Z,99691.84
2022-11-16T13:56:14.195Z,99679.13
2022-11-16T14:02:03.916Z,99670.09
2022-11-16T14:05:20.898Z,99672.53
2022-11-16T14:07:50.857Z,99676.16
2022-11-16T14:10:48.283Z,99673.22
2022-11-16T14:14:11.438Z,99672.38
2022-11-16T14:16:46.102Z,99658.34
2022-11-16T14:20:05.669Z,99652.28
2022-11-16T14:22:53.624Z,99645.31
2022-11-16T14:25:51.373Z,99657.66
2022-11-16T14:31:59.367Z,99669.50
2022-11-16T14:37:38.781Z,99655.81
2022-11-16T14:40:19.233Z,99653.34
2022-11-16T14:43:16.923Z,99662.81
2022-11-16T14:45:48.473Z,99663.81
2022-11-16T14:48:28.169Z,99662.00
2022-11-16T14:51:30.326Z,99660.34
2022-11-16T14:54:01.191Z,99667.97
2022-11-16T14:57:19.340Z,99670.66
2022-11-16T14:59:49.526Z,99663.84
2022-11-16T15:02:56.362Z,99661.19
2022-11-16T15:05:50.907Z,99667.97
2022-11-16T15:08:21.755Z,99667.97
2022-11-16T15:11:01.749Z,99664.47
2022-11-16T15:13:28.807Z,99665.28
2022-11-16T15:19:11.729Z,99672.47
2022-11-16T15:21:38.397Z,99667.13
2022-11-16T15:24:29.359Z,99668.97
2022-11-16T15:27:07.027Z,99666.50
2022-11-16T15:32:19.780Z,99680.66
2022-11-16T15:35:05.612Z,99680.84
2022-11-16T15:37:35.756Z,99686.56
2022-11-16T15:40:18.059Z,99681.84
2022-11-16T15:42:51.574Z,99673.19
2022-11-16T15:46:07.619Z,99681.81
2022-11-16T15:48:37.825Z,99682.81
2022-11-16T15:51:05.160Z,99691.41
2022-11-16T15:53:44.770Z,99689.13
2022-11-16T15:56:26.579Z,99691.81
2022-11-16T15:58:54.751Z,99690.56
2022-11-16T16:01:22.058Z,99692.59
2022-11-16T16:04:00.895Z,99689.72
2022-11-16T16:06:46.916Z,99692.19
2022-11-16T16:09:25.769Z,99696.50
2022-11-16T16:11:53.795Z,99693.16
2022-11-16T16:14:30.265Z,99695.66
2022-11-16T16:16:58.498Z,99691.97
2022-11-16T16:19:36.098Z,99687.63
2022-11-16T16:22:04.860Z,99688.81
2022-11-16T16:24:44.049Z,99688.63
2022-11-16T16:27:15.427Z,99690.72
2022-11-16T16:29:42.395Z,99702.00
2022-11-16T16:32:13.156Z,99702.59
2022-11-16T16:34:42.354Z,99704.63
2022-11-16T16:37:11.862Z,99700.38
2022-11-16T16:39:39.840Z,99698.91
2022-11-16T16:42:12.033Z,99706.09
2022-11-16T16:44:39.004Z,99707.97
2022-11-16T16:47:05.889Z,99706.66
2022-11-16T16:49:32.556Z,99699.47
2022-11-16T16:52:01.607Z,99702.72
2022-11-16T16:54:31.093Z,99709.06
2022-11-16T16:56:58.078Z,99704.13
2022-11-16T16:59:25.060Z,99698.41
2022-11-16T17:01:51.987Z,99698.16
2022-11-16T17:04:18.926Z,99694.09
2022-11-16T17:06:46.690Z,99686.06
2022-11-16T17:09:13.717Z,99687.66
2022-11-16T17:11:40.436Z,99688.06
2022-11-16T17:14:08.028Z,99680.47
2022-11-16T17:16:35.658Z,99680.91
2022-11-16T17:19:03.427Z,99681.25
2022-11-16T17:21:30.251Z,99674.84
2022-11-16T17:23:57.014Z,99670.75
2022-11-16T17:26:24.799Z,99670.13
2022-11-16T17:28:55.969Z,99667.84
2022-11-16T17:31:22.976Z,99670.16
2022-11-16T17:33:49.689Z,99676.88
2022-11-16T17:36:17.739Z,99678.75
2022-11-16T17:38:44.533Z,99684.47
2022-11-16T17:41:18.840Z,99684.47
2022-11-16T17:43:46.849Z,99681.00
2022-11-16T17:46:20.207Z,99683.44
2022-11-16T17:48:47.951Z,99679.38
2022-11-16T17:51:17.144Z,99680.00
2022-11-16T17:53:44.322Z,99686.53
2022-11-16T17:56:13.002Z,99672.41
2022-11-16T17:58:39.903Z,99683.28
2022-11-16T18:01:06.747Z,99677.75
2022-11-16T18:03:37.241Z,99674.03
2022-11-16T18:06:13.366Z,99673.59
2022-11-16T18:08:40.999Z,99670.16
2022-11-16T18:11:17.505Z,99673.88
2022-11-16T18:13:44.884Z,99676.53
2022-11-16T18:16:19.488Z,99668.94
2022-11-16T18:18:47.219Z,99676.16
2022-11-16T18:21:20.455Z,99675.81
2022-11-16T18:23:48.053Z,99673.72
2022-11-16T18:26:16.635Z,99668.84
2022-11-16T18:28:47.293Z,99667.44
2022-11-16T18:31:16.930Z,99679.66
2022-11-16T18:33:44.080Z,99678.88
2022-11-16T18:36:12.357Z,99680.91
2022-11-16T18:38:39.266Z,99676.66
2022-11-16T18:41:12.441Z,99667.19
2022-11-16T18:43:49.847Z,99667.41
2022-11-16T18:46:17.547Z,99677.63
2022-11-16T18:48:44.394Z,99663.91
2022-11-16T18:51:11.332Z,99664.31
2022-11-16T18:53:38.440Z,99672.28
2022-11-16T18:56:05.948Z,99676.00
2022-11-16T18:58:49.733Z,99686.28
2022-11-16T19:01:19.574Z,99691.00
2022-11-16T19:03:46.449Z,99696.97
2022-11-16T19:06:14.791Z,99702.06
2022-11-16T19:08:42.209Z,99694.25
2022-11-16T19:11:11.599Z,99692.59
2022-11-16T19:13:39.189Z,99697.97
2022-11-16T19:16:06.854Z,99689.53
2022-11-16T19:18:33.736Z,99685.00
2022-11-16T19:21:18.752Z,99693.00
2022-11-16T19:23:48.661Z,99706.56
2022-11-16T19:26:17.086Z,99702.66
2022-11-16T19:28:45.776Z,99691.56
2022-11-16T19:31:14.826Z,99701.84
2022-11-16T19:33:41.595Z,99703.88
2022-11-16T19:36:09.665Z,99633.16
2022-11-16T19:38:36.395Z,99597.06
2022-11-16T19:41:03.767Z,99581.03
2022-11-16T19:43:30.491Z,99559.09
2022-11-16T19:46:07.378Z,99542.09
2022-11-16T19:48:34.660Z,99539.63
2022-11-16T19:51:28.660Z,99547.44
2022-11-16T19:53:55.944Z,99544.97
2022-11-16T19:56:23.701Z,99544.56
2022-11-16T19:58:50.797Z,99534.94
2022-11-16T20:01:23.612Z,99528.16
2022-11-16T20:03:50.660Z,99522.81
2022-11-16T20:06:22.547Z,99517.09
2022-11-16T20:08:51.089Z,99505.59
2022-11-16T20:11:25.824Z,99501.69
2022-11-16T20:13:53.980Z,99508.28
2022-11-16T20:16:23.289Z,99499.03
2022-11-16T20:18:50.972Z,99492.66
2022-11-16T20:21:21.831Z,99490.41
2022-11-16T20:23:49.253Z,99488.56
2022-11-16T20:26:16.123Z,99486.31
2022-11-16T20:28:43.685Z,99481.19
2022-11-16T20:31:16.725Z,99477.50
2022-11-16T20:33:49.998Z,99471.97
2022-11-16T20:36:16.760Z,99477.28
2022-11-16T20:38:43.581Z,99457.81
2022-11-16T20:41:24.172Z,99452.50
2022-11-16T20:43:52.626Z,99447.16
2022-11-16T20:46:21.734Z,99455.75
2022-11-16T20:48:48.763Z,99455.34
2022-11-16T20:51:18.217Z,99455.31
2022-11-16T20:53:45.763Z,99457.38
2022-11-16T20:56:13.014Z,99457.59
2022-11-16T20:58:40.213Z,99465.59
2022-11-16T21:01:08.735Z,99468.47
2022-11-16T21:03:35.790Z,99457.38
2022-11-16T21:06:02.768Z,99452.28
2022-11-16T21:08:32.486Z,99442.41
2022-11-16T21:10:59.222Z,99441.81
2022-11-16T21:13:44.570Z,99435.84
2022-11-16T21:16:13.868Z,99428.66
2022-11-16T21:18:40.731Z,99437.50
2022-11-16T21:21:14.873Z,99446.50
2022-11-16T21:23:51.547Z,99448.78
2022-11-16T21:26:21.073Z,99454.28
2022-11-16T21:28:47.946Z,99459.84
2022-11-16T21:31:20.309Z,99451.41
2022-11-16T21:33:47.469Z,99445.47
2022-11-16T21:36:18.942Z,99439.34
2022-11-16T21:38:46.065Z,99438.91
2022-11-16T21:41:14.041Z,99427.22
2022-11-16T21:43:41.371Z,99427.84
2022-11-16T21:46:12.073Z,99424.19
2022-11-16T21:48:39.072Z,99422.72
2022-11-16T21:51:06.022Z,99427.66
2022-11-16T21:53:33.278Z,99426.03
2022-11-16T21:56:00.478Z,99422.94
2022-11-16T21:58:27.325Z,99431.53
2022-11-16T22:00:58.094Z,99426.63
2022-11-16T22:03:25.874Z,99418.84
2022-11-16T22:06:17.467Z,99409.63
2022-11-16T22:08:44.836Z,99416.78
2022-11-16T22:11:12.258Z,99409.41
2022-11-16T22:13:38.891Z,99398.75
2022-11-16T22:16:07.455Z,99387.69
2022-11-16T22:18:36.799Z,99396.09
2022-11-16T22:21:05.840Z,99371.91
2022-11-16T22:23:33.841Z,99363.09
2022-11-16T22:26:02.240Z,99362.28
2022-11-16T22:28:29.160Z,99359.19
2022-11-16T22:31:12.761Z,99355.72
2022-11-16T22:33:42.603Z,99355.31
2022-11-16T22:36:10.075Z,99356.53
2022-11-16T22:38:36.809Z,99343.84
2022-11-16T22:41:03.493Z,99350.19
2022-11-16T22:43:31.100Z,99356.53
2022-11-16T22:46:01.440Z,99357.16
2022-11-16T22:48:36.971Z,99357.56
2022-11-16T22:51:18.672Z,99352.25
2022-11-16T22:53:45.588Z,99347.94
2022-11-16T22:56:14.632Z,99352.66
2022-11-16T22:58:41.272Z,99354.69
2022-11-16T23:01:08.886Z,99353.28
2022-11-16T23:03:36.316Z,99342.16
2022-11-16T23:06:04.032Z,99337.09
2022-11-16T23:08:31.329Z,99329.88
2022-11-16T23:11:22.498Z,99313.53
2022-11-16T23:14:08.721Z,99308.78
2022-11-16T23:16:35.874Z,99296.09
2022-11-16T23:19:02.532Z,99289.94
2022-11-16T23:21:50.237Z,99282.16
2022-11-16T23:24:54.631Z,99275.00
2022-11-16T23:27:30.366Z,99275.41
2022-11-16T23:30:01.795Z,99267.59
2022-11-16T23:32:29.056Z,99263.53
2022-11-16T23:34:55.838Z,99260.47
2022-11-16T23:37:22.426Z,99252.44
2022-11-16T23:39:49.026Z,99247.75
2022-11-16T23:42:34.304Z,99236.28
2022-11-16T23:45:00.962Z,99238.72
2022-11-16T23:47:27.577Z,99222.34
2022-11-16T23:49:54.152Z,99215.78
2022-11-16T23:52:20.753Z,99209.25
2022-11-16T23:54:47.479Z,99215.59
2022-11-16T23:57:14.108Z,99206.59
2022-11-16T23:59:42.874Z,99206.59
